sensor_id;sensor_type;location;lat;lon;timestamp;pressure;altitude;pressure_sealevel;temperature;humidity
6833;BME280;3454;42.654;23.378;2024-03-29T00:00:58;50119.88;;;-142.19;44.31
6833;BME280;3454;42.654;23.378;2024-03-29T00:03:25;50164.31;;;-142.19;45.17
6833;BME280;3454;42.654;23.378;2024-03-29T00:05:51;50141.13;;;-142.19;45.25
6833;BME280;3454;42.654;23.378;2024-03-29T00:08:17;50137.28;;;-142.19;45.40
6833;BME280;3454;42.654;23.378;2024-03-29T00:10:42;50141.13;;;-142.19;45.33
6833;BME280;3454;42.654;23.378;2024-03-29T00:13:08;50117.97;;;-142.19;45.84
6833;BME280;3454;42.654;23.378;2024-03-29T00:15:34;50145.00;;;-142.19;45.54
6833;BME280;3454;42.654;23.378;2024-03-29T00:18:00;50152.72;;;-142.19;45.51
6833;BME280;3454;42.654;23.378;2024-03-29T00:20:25;50141.13;;;-142.19;45.35
6833;BME280;3454;42.654;23.378;2024-03-29T00:22:52;50139.19;;;-142.19;44.97
6833;BME280;3454;42.654;23.378;2024-03-29T00:25:18;50133.41;;;-142.19;44.81
6833;BME280;3454;42.654;23.378;2024-03-29T00:27:43;50141.13;;;-142.19;44.62
6833;BME280;3454;42.654;23.378;2024-03-29T00:30:10;50139.19;;;-142.19;45.08
6833;BME280;3454;42.654;23.378;2024-03-29T00:32:36;50143.06;;;-142.19;44.79
6833;BME280;3454;42.654;23.378;2024-03-29T00:35:02;50160.44;;;-142.19;45.15
6833;BME280;3454;42.654;23.378;2024-03-29T00:37:27;50139.19;;;-142.19;45.40
6833;BME280;3454;42.654;23.378;2024-03-29T00:39:53;50137.28;;;-142.19;45.84
6833;BME280;3454;42.654;23.378;2024-03-29T00:42:19;50164.31;;;-142.19;46.18
6833;BME280;3454;42.654;23.378;2024-03-29T00:44:46;50152.72;;;-142.19;46.26
6833;BME280;3454;42.654;23.378;2024-03-29T00:47:12;50175.91;;;-142.19;45.07
6833;BME280;3454;42.654;23.378;2024-03-29T00:49:39;50150.78;;;-142.19;44.98
6833;BME280;3454;42.654;23.378;2024-03-29T00:52:05;50129.53;;;-142.19;44.75
6833;BME280;3454;42.654;23.378;2024-03-29T00:54:31;50168.16;;;-142.19;44.76
6833;BME280;3454;42.654;23.378;2024-03-29T00:56:57;50160.44;;;-142.19;45.16
6833;BME280;3454;42.654;23.378;2024-03-29T00:59:23;50160.44;;;-142.19;45.58
6833;BME280;3454;42.654;23.378;2024-03-29T01:01:50;50129.53;;;-142.19;45.01
6833;BME280;3454;42.654;23.378;2024-03-29T01:04:16;50160.44;;;-142.19;44.77
6833;BME280;3454;42.654;23.378;2024-03-29T01:06:42;50148.84;;;-142.19;44.89
6833;BME280;3454;42.654;23.378;2024-03-29T01:09:10;50139.19;;;-142.19;45.19
6833;BME280;3454;42.654;23.378;2024-03-29T01:11:37;50145.00;;;-142.19;44.89
6833;BME280;3454;42.654;23.378;2024-03-29T01:14:04;50160.44;;;-142.19;45.46
6833;BME280;3454;42.654;23.378;2024-03-29T01:16:30;50139.19;;;-142.19;45.34
6833;BME280;3454;42.654;23.378;2024-03-29T01:18:59;50146.94;;;-142.19;45.84
6833;BME280;3454;42.654;23.378;2024-03-29T01:21:28;50175.91;;;-142.19;45.70
6833;BME280;3454;42.654;23.378;2024-03-29T01:23:53;50160.44;;;-142.19;45.89
6833;BME280;3454;42.654;23.378;2024-03-29T01:26:19;50154.66;;;-142.19;46.01
6833;BME280;3454;42.654;23.378;2024-03-29T01:28:45;50179.75;;;-142.19;47.06
6833;BME280;3454;42.654;23.378;2024-03-29T01:31:11;50168.16;;;-142.19;46.82
6833;BME280;3454;42.654;23.378;2024-03-29T01:33:38;50154.66;;;-142.19;46.67
6833;BME280;3454;42.654;23.378;2024-03-29T01:36:05;50168.16;;;-142.19;47.21
6833;BME280;3454;42.654;23.378;2024-03-29T01:38:31;50145.00;;;-142.19;47.71
6833;BME280;3454;42.654;23.378;2024-03-29T01:40:57;50172.03;;;-142.19;47.29
6833;BME280;3454;42.654;23.378;2024-03-29T01:43:23;50131.47;;;-142.19;47.76
6833;BME280;3454;42.654;23.378;2024-03-29T01:45:53;50189.41;;;-142.19;48.02
6833;BME280;3454;42.654;23.378;2024-03-29T01:48:19;50164.31;;;-142.19;48.03
6833;BME280;3454;42.654;23.378;2024-03-29T01:50:47;50137.28;;;-142.19;47.87
6833;BME280;3454;42.654;23.378;2024-03-29T01:53:13;50152.72;;;-142.19;47.41
6833;BME280;3454;42.654;23.378;2024-03-29T01:55:40;50143.06;;;-142.19;47.04
6833;BME280;3454;42.654;23.378;2024-03-29T01:58:08;50160.44;;;-142.19;46.26
6833;BME280;3454;42.654;23.378;2024-03-29T02:00:41;50156.59;;;-142.19;47.65
6833;BME280;3454;42.654;23.378;2024-03-29T02:03:10;50141.13;;;-142.19;47.90
6833;BME280;3454;42.654;23.378;2024-03-29T02:05:40;50164.31;;;-142.19;47.08
6833;BME280;3454;42.654;23.378;2024-03-29T02:08:07;50131.47;;;-142.19;47.25
6833;BME280;3454;42.654;23.378;2024-03-29T02:10:34;50123.75;;;-142.19;48.16
6833;BME280;3454;42.654;23.378;2024-03-29T02:13:00;50152.72;;;-142.19;47.09
6833;BME280;3454;42.654;23.378;2024-03-29T02:15:28;50141.13;;;-142.19;47.73
6833;BME280;3454;42.654;23.378;2024-03-29T02:17:53;50160.44;;;-142.19;47.81
6833;BME280;3454;42.654;23.378;2024-03-29T02:20:19;50160.44;;;-142.19;47.65
6833;BME280;3454;42.654;23.378;2024-03-29T02:22:51;50172.03;;;-142.19;47.23
6833;BME280;3454;42.654;23.378;2024-03-29T02:25:19;50148.84;;;-142.19;47.81
6833;BME280;3454;42.654;23.378;2024-03-29T02:27:45;50173.97;;;-142.19;47.59
6833;BME280;3454;42.654;23.378;2024-03-29T02:30:17;50141.13;;;-142.19;47.55
6833;BME280;3454;42.654;23.378;2024-03-29T02:32:43;50170.09;;;-142.19;46.72
6833;BME280;3454;42.654;23.378;2024-03-29T02:35:09;50152.72;;;-142.19;46.96
6833;BME280;3454;42.654;23.378;2024-03-29T02:37:35;50152.72;;;-142.19;47.24
6833;BME280;3454;42.654;23.378;2024-03-29T02:40:02;50183.63;;;-142.19;47.43
6833;BME280;3454;42.654;23.378;2024-03-29T02:42:28;50172.03;;;-142.19;47.68
6833;BME280;3454;42.654;23.378;2024-03-29T02:44:54;50150.78;;;-142.19;48.24
6833;BME280;3454;42.654;23.378;2024-03-29T02:47:21;50179.75;;;-142.19;48.15
6833;BME280;3454;42.654;23.378;2024-03-29T02:49:47;50170.09;;;-142.19;48.22
6833;BME280;3454;42.654;23.378;2024-03-29T02:52:13;50175.91;;;-142.19;48.86
6833;BME280;3454;42.654;23.378;2024-03-29T02:54:40;50170.09;;;-142.19;48.88
6833;BME280;3454;42.654;23.378;2024-03-29T02:57:05;50170.09;;;-142.19;49.06
6833;BME280;3454;42.654;23.378;2024-03-29T02:59:31;50164.31;;;-142.19;50.39
6833;BME280;3454;42.654;23.378;2024-03-29T03:01:56;50191.34;;;-142.19;50.47
6833;BME280;3454;42.654;23.378;2024-03-29T03:04:22;50170.09;;;-142.19;50.29
6833;BME280;3454;42.654;23.378;2024-03-29T03:06:48;50172.03;;;-142.19;50.58
6833;BME280;3454;42.654;23.378;2024-03-29T03:09:15;50183.63;;;-142.19;50.66
6833;BME280;3454;42.654;23.378;2024-03-29T03:11:59;50164.31;;;-142.19;50.86
6833;BME280;3454;42.654;23.378;2024-03-29T03:14:24;50191.34;;;-142.19;51.11
6833;BME280;3454;42.654;23.378;2024-03-29T03:16:50;50177.84;;;-142.19;51.02
6833;BME280;3454;42.654;23.378;2024-03-29T03:19:16;50199.06;;;-142.19;51.70
6833;BME280;3454;42.654;23.378;2024-03-29T03:21:41;50175.91;;;-142.19;50.67
6833;BME280;3454;42.654;23.378;2024-03-29T03:24:07;50183.63;;;-142.19;50.62
6833;BME280;3454;42.654;23.378;2024-03-29T03:26:32;50172.03;;;-142.19;50.19
6833;BME280;3454;42.654;23.378;2024-03-29T03:28:58;50181.69;;;-142.19;50.19
6833;BME280;3454;42.654;23.378;2024-03-29T03:31:23;50156.59;;;-142.19;49.88
6833;BME280;3454;42.654;23.378;2024-03-29T03:33:49;50164.31;;;-142.19;49.71
6833;BME280;3454;42.654;23.378;2024-03-29T03:36:14;50160.44;;;-142.19;49.86
6833;BME280;3454;42.654;23.378;2024-03-29T03:38:40;50175.91;;;-142.19;50.21
6833;BME280;3454;42.654;23.378;2024-03-29T03:41:06;50166.25;;;-142.19;50.21
6833;BME280;3454;42.654;23.378;2024-03-29T03:43:31;50173.97;;;-142.19;50.23
6833;BME280;3454;42.654;23.378;2024-03-29T03:46:00;50175.91;;;-142.19;50.46
6833;BME280;3454;42.654;23.378;2024-03-29T03:48:27;50173.97;;;-142.19;51.27
6833;BME280;3454;42.654;23.378;2024-03-29T03:50:56;50187.50;;;-142.19;50.45
6833;BME280;3454;42.654;23.378;2024-03-29T03:53:22;50175.91;;;-142.19;50.31
6833;BME280;3454;42.654;23.378;2024-03-29T03:55:48;50183.63;;;-142.19;50.44
6833;BME280;3454;42.654;23.378;2024-03-29T03:58:14;50172.03;;;-142.19;50.39
6833;BME280;3454;42.654;23.378;2024-03-29T04:00:40;50162.38;;;-142.19;50.15
6833;BME280;3454;42.654;23.378;2024-03-29T04:03:05;50173.97;;;-142.19;49.97
6833;BME280;3454;42.654;23.378;2024-03-29T04:05:31;50175.91;;;-142.19;49.90
6833;BME280;3454;42.654;23.378;2024-03-29T04:07:58;50175.91;;;-142.19;49.61
6833;BME280;3454;42.654;23.378;2024-03-29T04:10:25;50172.03;;;-142.19;49.93
6833;BME280;3454;42.654;23.378;2024-03-29T04:12:51;50187.50;;;-142.19;49.85
6833;BME280;3454;42.654;23.378;2024-03-29T04:15:17;50187.50;;;-142.19;49.56
6833;BME280;3454;42.654;23.378;2024-03-29T04:17:43;50166.25;;;-142.19;50.53
6833;BME280;3454;42.654;23.378;2024-03-29T04:20:10;50185.56;;;-142.19;50.19
6833;BME280;3454;42.654;23.378;2024-03-29T04:22:35;50139.19;;;-142.19;49.75
6833;BME280;3454;42.654;23.378;2024-03-29T04:25:01;50152.72;;;-142.19;48.87
6833;BME280;3454;42.654;23.378;2024-03-29T04:27:27;50146.94;;;-142.19;49.23
6833;BME280;3454;42.654;23.378;2024-03-29T04:29:54;50177.84;;;-142.19;49.34
6833;BME280;3454;42.654;23.378;2024-03-29T04:32:20;50145.00;;;-142.19;49.37
6833;BME280;3454;42.654;23.378;2024-03-29T04:34:49;50145.00;;;-142.19;48.96
6833;BME280;3454;42.654;23.378;2024-03-29T04:37:15;50160.44;;;-142.19;48.97
6833;BME280;3454;42.654;23.378;2024-03-29T04:39:45;50172.03;;;-142.19;49.01
6833;BME280;3454;42.654;23.378;2024-03-29T04:42:11;50154.66;;;-142.19;49.57
6833;BME280;3454;42.654;23.378;2024-03-29T04:44:37;50173.97;;;-142.19;49.59
6833;BME280;3454;42.654;23.378;2024-03-29T04:47:04;50185.56;;;-142.19;48.91
6833;BME280;3454;42.654;23.378;2024-03-29T04:49:30;50141.13;;;-142.19;49.24
6833;BME280;3454;42.654;23.378;2024-03-29T04:52:05;50181.69;;;-142.19;48.88
6833;BME280;3454;42.654;23.378;2024-03-29T04:54:32;50145.00;;;-142.19;49.64
6833;BME280;3454;42.654;23.378;2024-03-29T04:56:59;50156.59;;;-142.19;51.24
6833;BME280;3454;42.654;23.378;2024-03-29T04:59:27;50177.84;;;-142.19;49.94
6833;BME280;3454;42.654;23.378;2024-03-29T05:01:55;50156.59;;;-142.19;51.10
6833;BME280;3454;42.654;23.378;2024-03-29T05:04:22;50150.78;;;-142.19;50.50
6833;BME280;3454;42.654;23.378;2024-03-29T05:06:58;50139.19;;;-142.19;49.37
6833;BME280;3454;42.654;23.378;2024-03-29T05:09:25;50150.78;;;-142.19;49.40
6833;BME280;3454;42.654;23.378;2024-03-29T05:11:56;50175.91;;;-142.19;48.36
6833;BME280;3454;42.654;23.378;2024-03-29T05:14:22;50156.59;;;-142.19;48.80
6833;BME280;3454;42.654;23.378;2024-03-29T05:16:48;50146.94;;;-142.19;48.40
6833;BME280;3454;42.654;23.378;2024-03-29T05:19:15;50137.28;;;-142.19;48.14
6833;BME280;3454;42.654;23.378;2024-03-29T05:21:41;50166.25;;;-142.19;47.87
6833;BME280;3454;42.654;23.378;2024-03-29T05:24:08;50160.44;;;-142.19;47.73
6833;BME280;3454;42.654;23.378;2024-03-29T05:26:34;50143.06;;;-142.19;47.06
6833;BME280;3454;42.654;23.378;2024-03-29T05:29:00;50139.19;;;-142.19;47.27
6833;BME280;3454;42.654;23.378;2024-03-29T05:31:27;50137.28;;;-142.19;47.42
6833;BME280;3454;42.654;23.378;2024-03-29T05:33:52;50137.28;;;-142.19;47.24
6833;BME280;3454;42.654;23.378;2024-03-29T05:36:18;50131.47;;;-142.19;47.03
6833;BME280;3454;42.654;23.378;2024-03-29T05:38:44;50143.06;;;-142.19;46.40
6833;BME280;3454;42.654;23.378;2024-03-29T05:41:11;50133.41;;;-142.19;45.81
6833;BME280;3454;42.654;23.378;2024-03-29T05:43:38;50121.81;;;-142.19;45.70
6833;BME280;3454;42.654;23.378;2024-03-29T05:46:05;50116.03;;;-142.19;45.15
6833;BME280;3454;42.654;23.378;2024-03-29T05:48:31;50127.63;;;-142.19;43.85
6833;BME280;3454;42.654;23.378;2024-03-29T05:50:57;50119.88;;;-142.19;43.92
6833;BME280;3454;42.654;23.378;2024-03-29T05:53:22;50096.72;;;-142.19;44.17
6833;BME280;3454;42.654;23.378;2024-03-29T05:55:48;50123.75;;;-142.19;43.51
6833;BME280;3454;42.654;23.378;2024-03-29T05:58:14;50123.75;;;-142.19;45.07
6833;BME280;3454;42.654;23.378;2024-03-29T06:00:43;50114.09;;;-142.19;43.56
6833;BME280;3454;42.654;23.378;2024-03-29T06:03:09;50102.50;;;-142.19;44.17
6833;BME280;3454;42.654;23.378;2024-03-29T06:05:35;50125.69;;;-142.19;44.34
6833;BME280;3454;42.654;23.378;2024-03-29T06:08:01;50129.53;;;-142.19;45.68
6833;BME280;3454;42.654;23.378;2024-03-29T06:10:27;50114.09;;;-142.19;44.11
6833;BME280;3454;42.654;23.378;2024-03-29T06:12:53;50104.44;;;-142.19;44.09
6833;BME280;3454;42.654;23.378;2024-03-29T06:15:21;50106.38;;;-142.19;44.15
6833;BME280;3454;42.654;23.378;2024-03-29T06:18:05;50110.22;;;-142.19;44.41
6833;BME280;3454;42.654;23.378;2024-03-29T06:20:33;50129.53;;;-142.19;44.50
6833;BME280;3454;42.654;23.378;2024-03-29T06:22:59;50125.69;;;-142.19;44.28
6833;BME280;3454;42.654;23.378;2024-03-29T06:25:24;50127.63;;;-142.19;43.64
6833;BME280;3454;42.654;23.378;2024-03-29T06:27:50;50106.38;;;-142.19;43.64
6833;BME280;3454;42.654;23.378;2024-03-29T06:30:16;50104.44;;;-142.19;42.88
6833;BME280;3454;42.654;23.378;2024-03-29T06:32:43;50090.91;;;-142.19;43.05
6833;BME280;3454;42.654;23.378;2024-03-29T06:35:11;50106.38;;;-142.19;43.10
6833;BME280;3454;42.654;23.378;2024-03-29T06:37:38;50110.22;;;-142.19;42.81
6833;BME280;3454;42.654;23.378;2024-03-29T06:40:04;50085.13;;;-142.19;42.51
6833;BME280;3454;42.654;23.378;2024-03-29T06:42:31;50094.78;;;-142.19;42.27
6833;BME280;3454;42.654;23.378;2024-03-29T06:44:58;50085.13;;;-142.19;42.17
6833;BME280;3454;42.654;23.378;2024-03-29T06:47:27;50088.97;;;-142.19;41.97
6833;BME280;3454;42.654;23.378;2024-03-29T06:49:53;50075.47;;;-142.19;42.17
6833;BME280;3454;42.654;23.378;2024-03-29T06:52:19;50071.59;;;-142.19;42.06
6833;BME280;3454;42.654;23.378;2024-03-29T06:54:45;50073.53;;;-142.19;41.92
6833;BME280;3454;42.654;23.378;2024-03-29T06:57:11;50081.25;;;-142.19;41.20
6833;BME280;3454;42.654;23.378;2024-03-29T06:59:41;50071.59;;;-142.19;40.88
6833;BME280;3454;42.654;23.378;2024-03-29T07:02:07;50067.75;;;-142.19;41.09
6833;BME280;3454;42.654;23.378;2024-03-29T07:04:33;50075.47;;;-142.19;40.69
6833;BME280;3454;42.654;23.378;2024-03-29T07:06:59;50052.28;;;-142.19;40.98
6833;BME280;3454;42.654;23.378;2024-03-29T07:09:24;50060.00;;;-142.19;40.75
6833;BME280;3454;42.654;23.378;2024-03-29T07:11:51;50060.00;;;-142.19;40.56
6833;BME280;3454;42.654;23.378;2024-03-29T07:14:18;50077.41;;;-142.19;39.39
6833;BME280;3454;42.654;23.378;2024-03-29T07:16:45;50088.97;;;-142.19;39.64
6833;BME280;3454;42.654;23.378;2024-03-29T07:19:11;50061.94;;;-142.19;39.29
6833;BME280;3454;42.654;23.378;2024-03-29T07:21:48;50056.16;;;-142.19;38.90
6833;BME280;3454;42.654;23.378;2024-03-29T07:24:16;50063.88;;;-142.19;38.67
6833;BME280;3454;42.654;23.378;2024-03-29T07:26:41;50075.47;;;-142.19;39.16
6833;BME280;3454;42.654;23.378;2024-03-29T07:29:07;50067.75;;;-142.19;39.04
6833;BME280;3454;42.654;23.378;2024-03-29T07:31:33;50038.78;;;-142.19;38.97
6833;BME280;3454;42.654;23.378;2024-03-29T07:33:59;50054.22;;;-142.19;38.50
6833;BME280;3454;42.654;23.378;2024-03-29T07:36:26;50036.84;;;-142.19;38.37
6833;BME280;3454;42.654;23.378;2024-03-29T07:38:57;50036.84;;;-142.19;38.21
6833;BME280;3454;42.654;23.378;2024-03-29T07:41:23;50044.56;;;-142.19;38.79
6833;BME280;3454;42.654;23.378;2024-03-29T07:43:56;50034.91;;;-142.19;38.67
6833;BME280;3454;42.654;23.378;2024-03-29T08:01:56;50036.84;;;-142.19;36.56
6833;BME280;3454;42.654;23.378;2024-03-29T08:04:23;50031.03;;;-142.19;36.48
6833;BME280;3454;42.654;23.378;2024-03-29T08:06:51;50069.66;;;-142.19;36.75
6833;BME280;3454;42.654;23.378;2024-03-29T08:09:17;50048.44;;;-142.19;36.60
6833;BME280;3454;42.654;23.378;2024-03-29T08:11:43;50032.97;;;-142.19;36.68
6833;BME280;3454;42.654;23.378;2024-03-29T08:14:09;50027.19;;;-142.19;36.80
6833;BME280;3454;42.654;23.378;2024-03-29T08:16:34;50013.66;;;-142.19;36.29
6833;BME280;3454;42.654;23.378;2024-03-29T08:19:00;50046.50;;;-142.19;36.11
6833;BME280;3454;42.654;23.378;2024-03-29T08:21:25;50007.88;;;-142.19;35.99
6833;BME280;3454;42.654;23.378;2024-03-29T08:23:55;50013.66;;;-142.19;36.50
6833;BME280;3454;42.654;23.378;2024-03-29T08:26:22;49967.31;;;-142.19;36.07
6833;BME280;3454;42.654;23.378;2024-03-29T08:28:48;50004.00;;;-142.19;35.96
6833;BME280;3454;42.654;23.378;2024-03-29T08:31:15;50005.94;;;-142.19;36.34
6833;BME280;3454;42.654;23.378;2024-03-29T08:33:40;49971.19;;;-142.19;35.80
6833;BME280;3454;42.654;23.378;2024-03-29T08:36:08;50013.66;;;-142.19;34.53
6833;BME280;3454;42.654;23.378;2024-03-29T08:38:37;49990.50;;;-142.19;35.25
6833;BME280;3454;42.654;23.378;2024-03-29T08:41:07;49994.34;;;-142.19;34.67
6833;BME280;3454;42.654;23.378;2024-03-29T08:43:34;49971.19;;;-142.19;34.60
6833;BME280;3454;42.654;23.378;2024-03-29T08:45:59;49986.63;;;-142.19;34.48
6833;BME280;3454;42.654;23.378;2024-03-29T08:48:30;49984.69;;;-142.19;34.09
6833;BME280;3454;42.654;23.378;2024-03-29T08:50:56;49955.72;;;-142.19;34.21
6833;BME280;3454;42.654;23.378;2024-03-29T08:53:22;49973.09;;;-142.19;34.09
6833;BME280;3454;42.654;23.378;2024-03-29T08:55:48;49953.78;;;-142.19;32.89
6833;BME280;3454;42.654;23.378;2024-03-29T08:58:14;49942.22;;;-142.19;32.71
6833;BME280;3454;42.654;23.378;2024-03-29T09:00:39;49938.34;;;-142.19;34.02
6833;BME280;3454;42.654;23.378;2024-03-29T09:03:05;49946.06;;;-142.19;33.71
6833;BME280;3454;42.654;23.378;2024-03-29T09:05:31;49942.22;;;-142.19;32.76
6833;BME280;3454;42.654;23.378;2024-03-29T09:07:56;49930.63;;;-142.19;33.12
6833;BME280;3454;42.654;23.378;2024-03-29T09:10:23;49924.81;;;-142.19;31.76
6833;BME280;3454;42.654;23.378;2024-03-29T09:12:52;49919.03;;;-142.19;32.38
6833;BME280;3454;42.654;23.378;2024-03-29T09:15:18;49919.03;;;-142.19;31.36
6833;BME280;3454;42.654;23.378;2024-03-29T09:17:44;49901.66;;;-142.19;31.66
6833;BME280;3454;42.654;23.378;2024-03-29T09:20:10;49905.50;;;-142.19;32.28
6833;BME280;3454;42.654;23.378;2024-03-29T09:22:37;49911.31;;;-142.19;31.80
6833;BME280;3454;42.654;23.378;2024-03-29T09:25:04;49920.97;;;-142.19;30.81
6833;BME280;3454;42.654;23.378;2024-03-29T09:27:30;49895.84;;;-142.19;29.67
6833;BME280;3454;42.654;23.378;2024-03-29T09:30:00;49878.47;;;-142.19;29.62
6833;BME280;3454;42.654;23.378;2024-03-29T09:32:25;49880.41;;;-142.19;30.74
6833;BME280;3454;42.654;23.378;2024-03-29T09:34:51;49864.97;;;-142.19;29.56
6833;BME280;3454;42.654;23.378;2024-03-29T09:37:16;49880.41;;;-142.19;29.92
6833;BME280;3454;42.654;23.378;2024-03-29T09:39:43;49868.81;;;-142.19;29.74
6833;BME280;3454;42.654;23.378;2024-03-29T09:42:15;49857.22;;;-142.19;30.23
6833;BME280;3454;42.654;23.378;2024-03-29T09:44:43;49866.88;;;-142.19;29.12
6833;BME280;3454;42.654;23.378;2024-03-29T09:47:09;49866.88;;;-142.19;29.58
6833;BME280;3454;42.654;23.378;2024-03-29T09:49:37;49851.44;;;-142.19;29.75
6833;BME280;3454;42.654;23.378;2024-03-29T09:52:04;49828.25;;;-142.19;28.92
6833;BME280;3454;42.654;23.378;2024-03-29T09:54:31;49834.06;;;-142.19;27.31
6833;BME280;3454;42.654;23.378;2024-03-29T09:56:58;49851.44;;;-142.19;27.59
6833;BME280;3454;42.654;23.378;2024-03-29T09:59:24;49847.56;;;-142.19;28.25
6833;BME280;3454;42.654;23.378;2024-03-29T10:01:54;49836.00;;;-142.19;27.46
6833;BME280;3454;42.654;23.378;2024-03-29T10:04:21;49837.91;;;-142.19;26.61
6833;BME280;3454;42.654;23.378;2024-03-29T10:06:48;49843.72;;;-142.19;26.75
6833;BME280;3454;42.654;23.378;2024-03-29T10:09:19;49830.19;;;-142.19;27.15
6833;BME280;3454;42.654;23.378;2024-03-29T10:11:46;49808.94;;;-142.19;28.03
6833;BME280;3454;42.654;23.378;2024-03-29T10:14:13;49824.41;;;-142.19;27.52
6833;BME280;3454;42.654;23.378;2024-03-29T10:16:38;49851.44;;;-142.19;27.00
6833;BME280;3454;42.654;23.378;2024-03-29T10:19:11;49839.84;;;-142.19;27.00
6833;BME280;3454;42.654;23.378;2024-03-29T10:21:37;49855.31;;;-142.19;26.85
6833;BME280;3454;42.654;23.378;2024-03-29T10:24:14;49851.44;;;-142.19;27.62
6833;BME280;3454;42.654;23.378;2024-03-29T10:26:41;49810.88;;;-142.19;27.98
6833;BME280;3454;42.654;23.378;2024-03-29T10:29:07;49778.06;;;-142.19;28.14
6833;BME280;3454;42.654;23.378;2024-03-29T10:31:36;49830.19;;;-142.19;28.57
6833;BME280;3454;42.654;23.378;2024-03-29T10:34:05;49797.38;;;-142.19;27.86
6833;BME280;3454;42.654;23.378;2024-03-29T10:36:31;49801.22;;;-142.19;27.70
6833;BME280;3454;42.654;23.378;2024-03-29T10:39:10;49816.69;;;-142.19;28.16
6833;BME280;3454;42.654;23.378;2024-03-29T10:41:42;49783.84;;;-142.19;27.12
6833;BME280;3454;42.654;23.378;2024-03-29T10:44:12;49805.09;;;-142.19;26.80
6833;BME280;3454;42.654;23.378;2024-03-29T10:46:38;49787.72;;;-142.19;27.11
6833;BME280;3454;42.654;23.378;2024-03-29T10:49:10;49812.81;;;-142.19;27.26
6833;BME280;3454;42.654;23.378;2024-03-29T10:51:41;49832.13;;;-142.19;27.02
6833;BME280;3454;42.654;23.378;2024-03-29T10:54:13;49820.53;;;-142.19;28.46
6833;BME280;3454;42.654;23.378;2024-03-29T10:56:40;49822.47;;;-142.19;27.54
6833;BME280;3454;42.654;23.378;2024-03-29T10:59:27;49797.38;;;-142.19;27.65
6833;BME280;3454;42.654;23.378;2024-03-29T11:02:00;49820.53;;;-142.19;26.83
6833;BME280;3454;42.654;23.378;2024-03-29T11:04:32;49785.78;;;-142.19;27.49
6833;BME280;3454;42.654;23.378;2024-03-29T11:07:02;49797.38;;;-142.19;27.48
6833;BME280;3454;42.654;23.378;2024-03-29T11:09:33;49772.25;;;-142.19;26.48
6833;BME280;3454;42.654;23.378;2024-03-29T11:12:02;49789.63;;;-142.19;26.34
6833;BME280;3454;42.654;23.378;2024-03-29T11:14:54;49803.16;;;-142.19;26.31
6833;BME280;3454;42.654;23.378;2024-03-29T11:17:23;49781.91;;;-142.19;26.68
6833;BME280;3454;42.654;23.378;2024-03-29T11:19:49;49789.63;;;-142.19;26.86
6833;BME280;3454;42.654;23.378;2024-03-29T11:22:15;49785.78;;;-142.19;27.92
6833;BME280;3454;42.654;23.378;2024-03-29T11:24:41;49797.38;;;-142.19;27.24
6833;BME280;3454;42.654;23.378;2024-03-29T11:27:09;49797.38;;;-142.19;26.88
6833;BME280;3454;42.654;23.378;2024-03-29T11:29:37;49776.13;;;-142.19;27.55
6833;BME280;3454;42.654;23.378;2024-03-29T11:32:08;49783.84;;;-142.19;26.47
6833;BME280;3454;42.654;23.378;2024-03-29T11:34:34;49768.41;;;-142.19;27.34
6833;BME280;3454;42.654;23.378;2024-03-29T11:37:07;49772.25;;;-142.19;26.23
6833;BME280;3454;42.654;23.378;2024-03-29T11:39:33;49762.59;;;-142.19;26.29
6833;BME280;3454;42.654;23.378;2024-03-29T11:42:01;49752.94;;;-142.19;26.24
6833;BME280;3454;42.654;23.378;2024-03-29T11:44:27;49779.97;;;-142.19;26.26
6833;BME280;3454;42.654;23.378;2024-03-29T11:46:57;49752.94;;;-142.19;26.51
6833;BME280;3454;42.654;23.378;2024-03-29T11:49:23;49824.41;;;-142.19;25.99
6833;BME280;3454;42.654;23.378;2024-03-29T11:51:49;49751.00;;;-142.19;25.88
6833;BME280;3454;42.654;23.378;2024-03-29T11:54:15;49760.66;;;-142.19;25.62
6833;BME280;3454;42.654;23.378;2024-03-29T11:56:42;49764.53;;;-142.19;25.84
6833;BME280;3454;42.654;23.378;2024-03-29T11:59:08;49751.00;;;-142.19;26.25
6833;BME280;3454;42.654;23.378;2024-03-29T12:01:33;49752.94;;;-142.19;26.47
6833;BME280;3454;42.654;23.378;2024-03-29T12:03:59;49762.59;;;-142.19;27.00
6833;BME280;3454;42.654;23.378;2024-03-29T12:06:25;49797.38;;;-142.19;27.28
6833;BME280;3454;42.654;23.378;2024-03-29T12:08:51;49787.72;;;-142.19;26.78
6833;BME280;3454;42.654;23.378;2024-03-29T12:11:18;49801.22;;;-142.19;27.09
6833;BME280;3454;42.654;23.378;2024-03-29T12:13:44;49781.91;;;-142.19;27.46
6833;BME280;3454;42.654;23.378;2024-03-29T12:16:10;49778.06;;;-142.19;26.34
6833;BME280;3454;42.654;23.378;2024-03-29T12:18:36;49768.41;;;-142.19;26.06
6833;BME280;3454;42.654;23.378;2024-03-29T12:21:01;49758.75;;;-142.19;26.01
6833;BME280;3454;42.654;23.378;2024-03-29T12:23:27;49751.00;;;-142.19;25.83
6833;BME280;3454;42.654;23.378;2024-03-29T12:25:57;49731.69;;;-142.19;25.57
6833;BME280;3454;42.654;23.378;2024-03-29T12:28:26;49729.78;;;-142.19;25.85
6833;BME280;3454;42.654;23.378;2024-03-29T12:30:53;49731.69;;;-142.19;26.20
6833;BME280;3454;42.654;23.378;2024-03-29T12:33:21;49716.25;;;-142.19;25.09
6833;BME280;3454;42.654;23.378;2024-03-29T12:35:52;49704.66;;;-142.19;25.05
6833;BME280;3454;42.654;23.378;2024-03-29T12:38:20;49723.97;;;-142.19;25.73
6833;BME280;3454;42.654;23.378;2024-03-29T12:40:47;49727.84;;;-142.19;25.80
6833;BME280;3454;42.654;23.378;2024-03-29T12:43:13;49723.97;;;-142.19;25.79
6833;BME280;3454;42.654;23.378;2024-03-29T12:45:41;49720.13;;;-142.19;25.39
6833;BME280;3454;42.654;23.378;2024-03-29T12:48:11;49722.03;;;-142.19;26.07
6833;BME280;3454;42.654;23.378;2024-03-29T12:50:39;49731.69;;;-142.19;25.70
6833;BME280;3454;42.654;23.378;2024-03-29T12:53:08;49737.50;;;-142.19;25.82
6833;BME280;3454;42.654;23.378;2024-03-29T12:55:34;49727.84;;;-142.19;25.03
6833;BME280;3454;42.654;23.378;2024-03-29T12:58:02;49723.97;;;-142.19;25.50
6833;BME280;3454;42.654;23.378;2024-03-29T13:00:30;49710.47;;;-142.19;24.96
6833;BME280;3454;42.654;23.378;2024-03-29T13:02:57;49714.31;;;-142.19;25.17
6833;BME280;3454;42.654;23.378;2024-03-29T13:05:23;49720.13;;;-142.19;24.93